createdAt,value
2019-01-25T00:01:49.782Z,18.37
2019-01-25T00:04:22.162Z,17.12
2019-01-25T00:06:54.223Z,18.10
2019-01-25T00:09:27.544Z,16.37
2019-01-25T00:12:00.282Z,17.25
2019-01-25T00:14:32.985Z,16.90
2019-01-25T00:17:04.546Z,16.40
2019-01-25T00:19:36.103Z,16.55
2019-01-25T00:22:08.742Z,16.00
2019-01-25T00:24:41.525Z,15.15
2019-01-25T00:27:13.543Z,17.30
2019-01-25T00:29:45.383Z,16.30
2019-01-25T00:32:19.162Z,17.10
2019-01-25T00:34:51.543Z,28.85
2019-01-25T00:37:23.162Z,20.62
2019-01-25T00:39:54.643Z,18.60
2019-01-25T00:42:26.463Z,18.75
2019-01-25T00:44:58.523Z,17.42
2019-01-25T00:47:31.682Z,16.25
2019-01-25T00:50:03.663Z,15.60
2019-01-25T00:52:35.763Z,17.12
2019-01-25T00:55:08.344Z,18.45
2019-01-25T00:57:40.924Z,16.97
2019-01-25T01:00:20.942Z,17.52
2019-01-25T01:02:53.724Z,16.30
2019-01-25T01:05:25.302Z,15.35
2019-01-25T01:07:58.123Z,17.25
2019-01-25T01:10:30.484Z,15.13
2019-01-25T01:13:02.004Z,14.60
2019-01-25T01:15:34.303Z,17.50
2019-01-25T01:18:05.942Z,16.25
2019-01-25T01:20:37.942Z,16.25
2019-01-25T01:23:10.030Z,15.80
2019-01-25T01:25:41.343Z,16.85
2019-01-25T01:28:13.402Z,16.97
2019-01-25T01:30:46.982Z,16.52
2019-01-25T01:33:18.764Z,16.17
2019-01-25T01:35:50.604Z,18.32
2019-01-25T01:38:22.122Z,16.90
2019-01-25T01:40:55.081Z,18.10
2019-01-25T01:43:27.806Z,17.80
2019-01-25T01:46:00.609Z,17.82
2019-01-25T01:48:32.867Z,18.62
2019-01-25T01:51:05.068Z,18.55
2019-01-25T01:53:38.105Z,18.02
2019-01-25T01:56:10.605Z,18.98
2019-01-25T01:58:43.546Z,18.05
2019-01-25T02:01:16.346Z,17.65
2019-01-25T02:03:48.325Z,17.40
2019-01-25T02:06:20.525Z,17.57
2019-01-25T02:08:52.826Z,17.85
2019-01-25T02:11:25.058Z,16.35
2019-01-25T02:13:57.469Z,17.62
2019-01-25T02:16:30.828Z,17.00
2019-01-25T02:19:03.625Z,17.57
2019-01-25T02:21:36.087Z,16.70
2019-01-25T02:24:09.086Z,16.32
2019-01-25T02:26:42.127Z,18.27
2019-01-25T02:29:15.685Z,18.20
2019-01-25T02:31:48.058Z,18.07
2019-01-25T02:34:20.246Z,19.00
2019-01-25T02:36:52.704Z,16.85
2019-01-25T02:39:25.025Z,16.70
2019-01-25T02:41:57.685Z,18.02
2019-01-25T02:44:30.646Z,17.52
2019-01-25T02:49:42.346Z,18.48
2019-01-25T02:52:14.568Z,19.42
2019-01-25T02:54:47.487Z,20.75
2019-01-25T02:57:19.885Z,18.00
2019-01-25T02:59:52.065Z,19.73
2019-01-25T03:02:25.126Z,17.32
2019-01-25T03:04:57.026Z,17.60
2019-01-25T03:07:29.305Z,17.27
2019-01-25T03:10:02.869Z,18.05
2019-01-25T03:12:35.145Z,17.85
2019-01-25T03:15:08.345Z,19.20
2019-01-25T03:17:41.186Z,17.52
2019-01-25T03:20:14.206Z,17.35
2019-01-25T03:22:46.250Z,18.80
2019-01-25T03:25:23.266Z,18.62
2019-01-25T03:27:56.485Z,18.67
2019-01-25T03:30:29.716Z,18.98
2019-01-25T03:33:02.412Z,18.70
2019-01-25T03:35:35.005Z,19.42
2019-01-25T03:38:07.886Z,20.20
2019-01-25T03:40:40.765Z,21.52
2019-01-25T03:43:13.045Z,23.83
2019-01-25T03:45:45.466Z,24.10
2019-01-25T03:48:18.726Z,22.48
2019-01-25T03:50:51.266Z,23.67
2019-01-25T03:53:23.367Z,23.27
2019-01-25T03:55:55.666Z,22.45
2019-01-25T03:58:28.149Z,23.50
2019-01-25T04:01:00.444Z,23.10
2019-01-25T04:03:33.345Z,23.07
2019-01-25T04:06:06.627Z,23.60
2019-01-25T04:08:39.306Z,22.17
2019-01-25T04:11:11.586Z,24.20
2019-01-25T04:13:44.604Z,24.55
2019-01-25T04:16:17.326Z,23.27
2019-01-25T04:18:50.387Z,23.77
2019-01-25T04:21:22.348Z,23.40
2019-01-25T04:23:54.687Z,26.10
2019-01-25T04:26:27.385Z,25.60
2019-01-25T04:28:59.781Z,25.17
2019-01-25T04:31:31.967Z,25.97
2019-01-25T04:34:05.296Z,25.40
2019-01-25T04:36:38.908Z,26.37
2019-01-25T04:39:11.786Z,25.10
2019-01-25T04:41:43.968Z,25.25
2019-01-25T04:44:16.669Z,25.50
2019-01-25T04:46:48.467Z,26.25
2019-01-25T04:49:20.865Z,25.02
2019-01-25T04:51:55.506Z,25.10
2019-01-25T04:54:27.748Z,25.32
2019-01-25T04:57:00.366Z,25.92
2019-01-25T04:59:33.068Z,27.30
2019-01-25T05:02:05.425Z,25.15
2019-01-25T05:04:39.889Z,24.70
2019-01-25T05:07:12.626Z,23.52
2019-01-25T05:09:45.766Z,24.12
2019-01-25T05:12:17.692Z,24.80
2019-01-25T05:14:50.527Z,24.32
2019-01-25T05:17:23.807Z,25.17
2019-01-25T05:19:56.128Z,23.95
2019-01-25T05:22:28.507Z,24.47
2019-01-25T05:25:01.386Z,24.52
2019-01-25T05:27:34.786Z,24.43
2019-01-25T05:30:09.887Z,24.40
2019-01-25T05:32:42.205Z,24.87
2019-01-25T05:35:14.886Z,23.60
2019-01-25T05:37:47.514Z,24.82
2019-01-25T05:40:24.906Z,23.25
2019-01-25T05:42:57.007Z,22.30
2019-01-25T05:45:29.532Z,23.57
2019-01-25T05:48:01.486Z,23.50
2019-01-25T05:50:34.388Z,23.80
2019-01-25T05:53:07.067Z,24.05
2019-01-25T05:55:39.588Z,26.35
2019-01-25T05:58:12.085Z,21.52
2019-01-25T06:00:44.767Z,23.77
2019-01-25T06:03:17.407Z,24.00
2019-01-25T06:05:49.466Z,27.50
2019-01-25T06:08:43.540Z,26.00
2019-01-25T06:11:13.954Z,26.77
2019-01-25T06:13:46.465Z,25.08
2019-01-25T06:16:19.328Z,26.62
2019-01-25T06:18:52.287Z,25.68
2019-01-25T06:21:24.665Z,24.80
2019-01-25T06:23:58.946Z,25.15
2019-01-25T06:26:31.345Z,25.88
2019-01-25T06:29:04.127Z,26.00
2019-01-25T06:31:37.405Z,24.90
2019-01-25T06:34:09.590Z,26.40
2019-01-25T06:36:42.095Z,26.10
2019-01-25T06:39:14.646Z,27.17
2019-01-25T06:41:46.827Z,25.50
2019-01-25T06:44:18.885Z,25.75
2019-01-25T06:46:51.890Z,26.12
2019-01-25T06:49:24.446Z,23.10
2019-01-25T06:51:56.767Z,27.70
2019-01-25T06:54:29.587Z,27.42
2019-01-25T06:57:03.165Z,33.85
2019-01-25T06:59:37.827Z,27.07
2019-01-25T07:02:17.854Z,26.80
2019-01-25T07:04:50.686Z,25.17
2019-01-25T07:07:27.606Z,26.15
2019-01-25T07:09:59.646Z,25.60
2019-01-25T07:12:33.566Z,25.72
2019-01-25T07:15:05.966Z,26.95
2019-01-25T07:17:38.406Z,25.72
2019-01-25T07:20:12.385Z,25.40
2019-01-25T07:22:44.414Z,26.23
2019-01-25T07:25:16.927Z,25.05
2019-01-25T07:27:49.324Z,25.45
2019-01-25T07:30:22.687Z,26.33
2019-01-25T07:32:56.003Z,27.10
2019-01-25T07:35:29.046Z,27.17
2019-01-25T07:38:01.586Z,25.72
2019-01-25T07:40:33.963Z,27.60
2019-01-25T07:43:06.249Z,26.50
2019-01-25T07:45:38.857Z,28.02
2019-01-25T07:48:11.207Z,26.73
2019-01-25T07:50:44.006Z,27.82
2019-01-25T07:53:17.327Z,26.60
2019-01-25T07:55:49.685Z,25.62
2019-01-25T07:58:22.166Z,25.57
2019-01-25T08:00:55.586Z,26.07
2019-01-25T08:03:28.126Z,26.27
2019-01-25T08:06:00.646Z,27.10
2019-01-25T08:08:33.086Z,27.70
2019-01-25T08:11:06.646Z,29.57
2019-01-25T08:13:39.446Z,24.47
2019-01-25T08:16:12.350Z,28.83
2019-01-25T08:18:45.246Z,28.87
2019-01-25T08:21:17.855Z,29.85
2019-01-25T08:23:49.526Z,29.60
2019-01-25T08:26:21.424Z,30.20
2019-01-25T08:28:54.397Z,28.77
2019-01-25T08:31:27.006Z,26.90
2019-01-25T08:33:58.315Z,32.28
2019-01-25T08:36:30.346Z,29.42
2019-01-25T08:39:02.446Z,28.55
2019-01-25T08:41:34.525Z,29.07
2019-01-25T08:44:07.477Z,31.05
2019-01-25T08:46:39.970Z,29.25
2019-01-25T08:49:13.267Z,28.77
2019-01-25T08:51:45.641Z,28.77
2019-01-25T08:54:17.755Z,31.48
2019-01-25T08:56:50.847Z,30.52
2019-01-25T08:59:23.567Z,28.92
2019-01-25T09:01:55.606Z,33.08
2019-01-25T09:04:28.546Z,30.17
2019-01-25T09:07:01.026Z,32.28
2019-01-25T09:09:34.876Z,32.58
2019-01-25T09:12:06.634Z,30.68
2019-01-25T09:14:39.613Z,30.40
2019-01-25T09:17:12.397Z,29.25
2019-01-25T09:19:45.753Z,31.20
2019-01-25T09:22:19.048Z,30.08
2019-01-25T09:24:51.368Z,30.85
2019-01-25T09:27:23.892Z,31.93
2019-01-25T09:29:57.349Z,31.70
2019-01-25T09:32:30.129Z,37.88
2019-01-25T09:35:02.431Z,34.75
2019-01-25T09:37:34.788Z,31.42
2019-01-25T09:40:09.249Z,30.80
2019-01-25T09:42:42.230Z,31.68
2019-01-25T09:45:15.550Z,33.92
2019-01-25T09:47:48.429Z,32.90
2019-01-25T09:50:21.449Z,32.40
2019-01-25T09:52:54.068Z,33.45
2019-01-25T09:55:27.809Z,32.73
2019-01-25T09:58:01.668Z,32.85
2019-01-25T10:00:59.550Z,33.67
2019-01-25T10:03:31.748Z,31.25
2019-01-25T10:06:04.594Z,33.35
2019-01-25T10:08:37.750Z,32.67
2019-01-25T10:11:11.148Z,31.65
2019-01-25T10:13:44.392Z,31.42
2019-01-25T10:16:16.951Z,33.15
2019-01-25T10:18:49.909Z,33.55
2019-01-25T10:21:22.923Z,31.15
2019-01-25T10:23:55.785Z,34.40
2019-01-25T10:26:27.803Z,32.67
2019-01-25T10:29:00.048Z,33.23
2019-01-25T10:31:32.195Z,31.17
2019-01-25T10:34:04.875Z,30.12
2019-01-25T10:36:37.974Z,31.15
2019-01-25T10:39:11.975Z,29.57
2019-01-25T10:41:44.815Z,32.25
2019-01-25T10:44:17.675Z,29.92
2019-01-25T10:46:52.332Z,31.05
2019-01-25T10:49:25.203Z,30.57
2019-01-25T10:51:57.135Z,30.20
2019-01-25T10:54:29.153Z,30.40
2019-01-25T10:57:01.516Z,30.40
2019-01-25T10:59:35.126Z,30.32
2019-01-25T11:02:07.723Z,32.33
2019-01-25T11:04:40.156Z,29.23
2019-01-25T11:07:13.576Z,29.98
2019-01-25T11:09:46.855Z,27.95
2019-01-25T11:12:19.815Z,29.92
2019-01-25T11:14:53.193Z,25.88
2019-01-25T11:17:25.163Z,33.80
2019-01-25T11:19:57.473Z,30.15
2019-01-25T11:22:30.314Z,25.82
2019-01-25T11:25:02.596Z,23.70
2019-01-25T11:27:35.361Z,25.92
2019-01-25T11:30:09.435Z,26.20
2019-01-25T11:32:41.500Z,27.60
2019-01-25T11:35:14.116Z,28.67
2019-01-25T11:37:46.139Z,28.45
2019-01-25T11:40:21.815Z,28.15
2019-01-25T11:42:54.155Z,33.28
2019-01-25T11:45:27.491Z,30.65
2019-01-25T11:48:01.035Z,28.87
2019-01-25T11:50:33.856Z,32.50
2019-01-25T11:53:06.778Z,40.78
2019-01-25T11:55:38.914Z,30.27
2019-01-25T11:58:11.335Z,35.33
2019-01-25T12:00:46.054Z,28.67
2019-01-25T12:03:19.039Z,30.90
2019-01-25T12:05:50.895Z,26.62
2019-01-25T12:08:23.468Z,29.75
2019-01-25T12:10:55.765Z,34.20
2019-01-25T12:13:28.476Z,27.58
2019-01-25T12:16:00.916Z,29.32
2019-01-25T12:18:33.785Z,32.15
2019-01-25T12:21:05.985Z,31.20
2019-01-25T12:23:39.045Z,28.23
2019-01-25T12:26:11.462Z,30.77
2019-01-25T12:28:43.559Z,30.27
2019-01-25T12:31:15.383Z,29.02
2019-01-25T12:33:47.360Z,30.43
2019-01-25T12:36:18.965Z,37.63
2019-01-25T12:38:52.585Z,28.55
2019-01-25T12:41:24.172Z,32.42
2019-01-25T12:43:57.000Z,36.88
2019-01-25T12:46:30.052Z,30.97
2019-01-25T12:49:02.634Z,28.17
2019-01-25T12:51:40.571Z,31.15
2019-01-25T12:54:12.253Z,30.08
2019-01-25T12:56:44.738Z,29.25
2019-01-25T12:59:17.791Z,30.77
2019-01-25T13:01:51.375Z,26.97
2019-01-25T13:04:23.731Z,27.77
2019-01-25T13:06:56.352Z,29.70
2019-01-25T13:09:29.155Z,30.85
2019-01-25T13:12:01.571Z,28.73
2019-01-25T13:14:34.171Z,31.23
2019-01-25T13:17:07.398Z,31.12
2019-01-25T13:19:40.797Z,29.12
2019-01-25T13:22:13.547Z,28.23
2019-01-25T13:24:45.756Z,42.98
2019-01-25T13:27:18.225Z,33.88
2019-01-25T13:29:51.773Z,27.90
2019-01-25T13:32:24.891Z,29.67
2019-01-25T13:34:57.166Z,29.25
2019-01-25T13:37:31.501Z,32.03
2019-01-25T13:40:03.827Z,29.72
2019-01-25T13:42:36.466Z,28.40
2019-01-25T13:45:10.381Z,32.17
2019-01-25T13:47:43.883Z,29.50
2019-01-25T13:50:20.745Z,29.60
2019-01-25T13:52:53.404Z,28.47
2019-01-25T13:55:27.246Z,30.15
2019-01-25T13:57:59.665Z,29.85
2019-01-25T14:00:33.884Z,27.82
2019-01-25T14:03:07.143Z,28.30
2019-01-25T14:05:38.884Z,30.12
2019-01-25T14:08:10.770Z,29.70
2019-01-25T14:10:44.014Z,27.73
2019-01-25T14:13:16.468Z,28.23
2019-01-25T14:15:48.454Z,31.70
2019-01-25T14:18:20.509Z,32.67
2019-01-25T14:20:52.946Z,29.50
2019-01-25T14:23:25.382Z,31.50
2019-01-25T14:25:57.480Z,34.58
2019-01-25T14:28:30.565Z,27.93
2019-01-25T14:31:03.201Z,38.55
2019-01-25T14:33:35.585Z,31.77
2019-01-25T14:36:08.985Z,27.73
2019-01-25T14:38:41.384Z,27.07
2019-01-25T14:41:14.183Z,27.62
2019-01-25T14:43:46.165Z,33.08
2019-01-25T14:46:19.225Z,28.07
2019-01-25T14:48:51.681Z,26.97
2019-01-25T14:51:23.103Z,26.95
2019-01-25T14:53:56.145Z,23.62
2019-01-25T14:56:29.145Z,29.40
2019-01-25T14:59:02.264Z,30.35
2019-01-25T15:01:34.144Z,27.85
2019-01-25T15:04:07.165Z,30.60
2019-01-25T15:06:39.704Z,27.13
2019-01-25T15:09:13.323Z,24.20
2019-01-25T15:11:46.404Z,23.87
2019-01-25T15:14:19.253Z,26.25
2019-01-25T15:16:51.364Z,35.00
2019-01-25T15:19:25.324Z,23.95
2019-01-25T15:21:58.273Z,27.07
2019-01-25T15:24:30.824Z,28.23
2019-01-25T15:27:03.026Z,23.95
2019-01-25T15:29:36.243Z,24.95
2019-01-25T15:32:08.884Z,24.87
2019-01-25T15:34:42.183Z,21.27
2019-01-25T15:37:14.503Z,21.85
2019-01-25T15:39:47.438Z,23.32
2019-01-25T15:42:20.979Z,22.30
2019-01-25T15:44:54.025Z,26.42
2019-01-25T15:47:25.684Z,22.82
2019-01-25T15:49:58.967Z,24.10
2019-01-25T15:52:31.551Z,21.15
2019-01-25T15:55:03.964Z,23.57
2019-01-25T15:57:36.447Z,21.85
2019-01-25T16:00:12.765Z,30.45
2019-01-25T16:02:45.104Z,30.90
2019-01-25T16:05:18.705Z,23.12
2019-01-25T16:07:51.350Z,26.65
2019-01-25T16:10:25.184Z,23.32
2019-01-25T16:12:57.727Z,19.23
2019-01-25T16:15:32.579Z,20.30
2019-01-25T16:18:05.242Z,20.00
2019-01-25T16:20:39.038Z,22.75
2019-01-25T16:23:11.382Z,20.55
2019-01-25T16:25:44.941Z,22.02
2019-01-25T16:28:17.312Z,21.00
2019-01-25T16:30:50.108Z,21.00
2019-01-25T16:33:21.977Z,22.52
2019-01-25T16:35:54.531Z,25.82
2019-01-25T16:38:27.331Z,20.10
2019-01-25T16:40:59.531Z,21.27
2019-01-25T16:43:31.710Z,21.25
2019-01-25T16:46:04.039Z,23.38
2019-01-25T16:48:37.027Z,20.15
2019-01-25T16:51:09.733Z,18.25
2019-01-25T16:53:43.278Z,19.12
2019-01-25T16:56:16.958Z,20.65
2019-01-25T16:58:49.492Z,18.60
2019-01-25T17:01:21.971Z,19.42
2019-01-25T17:03:55.252Z,22.67
2019-01-25T17:06:27.991Z,19.60
2019-01-25T17:09:00.312Z,21.12
2019-01-25T17:11:32.892Z,24.20
2019-01-25T17:14:06.291Z,27.17
2019-01-25T17:16:38.653Z,23.30
2019-01-25T17:19:11.551Z,24.00
2019-01-25T17:21:44.011Z,24.95
2019-01-25T17:24:17.110Z,21.23
2019-01-25T17:26:50.393Z,20.45
2019-01-25T17:29:22.831Z,19.70
2019-01-25T17:31:55.672Z,21.23
2019-01-25T17:34:28.373Z,19.30
2019-01-25T17:37:00.991Z,21.33
2019-01-25T17:39:33.732Z,19.65
2019-01-25T17:42:06.412Z,17.82
2019-01-25T17:44:41.456Z,21.17
2019-01-25T17:47:13.010Z,21.95
2019-01-25T17:49:45.440Z,20.80
2019-01-25T17:52:17.631Z,21.40
2019-01-25T17:54:50.591Z,24.98
2019-01-25T17:57:23.711Z,24.32
2019-01-25T17:59:55.651Z,18.23
2019-01-25T18:02:28.251Z,21.07
2019-01-25T18:05:00.591Z,19.27
2019-01-25T18:07:33.051Z,17.02
2019-01-25T18:10:05.710Z,18.82
2019-01-25T18:12:39.131Z,19.23
2019-01-25T18:15:12.631Z,20.40
2019-01-25T18:17:45.530Z,27.40
2019-01-25T18:20:18.370Z,19.48
2019-01-25T18:22:50.613Z,25.15
2019-01-25T18:25:32.751Z,23.40
2019-01-25T18:28:06.010Z,25.10
2019-01-25T18:30:47.434Z,22.93
2019-01-25T18:33:19.856Z,23.98
2019-01-25T18:35:52.531Z,23.83
2019-01-25T18:38:25.011Z,22.55
2019-01-25T18:40:59.174Z,22.22
2019-01-25T18:43:31.552Z,22.73
2019-01-25T18:46:03.891Z,24.12
2019-01-25T18:48:35.717Z,22.85
2019-01-25T18:51:08.794Z,20.95
2019-01-25T18:53:41.071Z,22.55
2019-01-25T18:56:14.633Z,22.70
2019-01-25T18:58:47.371Z,20.62
2019-01-25T19:01:20.190Z,20.60
2019-01-25T19:03:53.251Z,18.35
2019-01-25T19:06:26.012Z,16.85
2019-01-25T19:08:57.931Z,16.67
2019-01-25T19:11:31.231Z,16.65
2019-01-25T19:14:04.291Z,18.95
2019-01-25T19:16:36.831Z,18.92
2019-01-25T19:19:09.251Z,16.97
2019-01-25T19:21:41.831Z,16.15
2019-01-25T19:24:14.871Z,17.05
2019-01-25T19:26:47.911Z,18.45
2019-01-25T19:29:19.912Z,16.80
2019-01-25T19:31:52.730Z,16.00
2019-01-25T19:34:26.152Z,17.20
2019-01-25T19:36:58.532Z,17.70
2019-01-25T19:39:31.392Z,16.73
2019-01-25T19:42:03.651Z,16.23
2019-01-25T19:44:35.731Z,15.58
2019-01-25T19:47:08.451Z,15.18
2019-01-25T19:49:41.632Z,16.30
2019-01-25T19:52:14.450Z,18.45
2019-01-25T19:54:47.054Z,17.62
2019-01-25T19:57:19.671Z,16.02
2019-01-25T19:59:53.253Z,15.25
2019-01-25T20:02:26.054Z,16.27
2019-01-25T20:04:58.170Z,16.45
2019-01-25T20:07:30.731Z,15.78
2019-01-25T20:10:04.571Z,15.78
2019-01-25T20:12:36.931Z,16.35
2019-01-25T20:15:09.591Z,15.20
2019-01-25T20:17:42.390Z,14.87
2019-01-25T20:20:26.534Z,15.23
2019-01-25T20:22:59.813Z,14.90
2019-01-25T20:25:32.532Z,15.55
2019-01-25T20:28:04.521Z,16.37
2019-01-25T20:30:37.714Z,19.50
2019-01-25T20:33:11.091Z,16.15
2019-01-25T20:35:45.272Z,17.77
2019-01-25T20:38:18.527Z,16.93
2019-01-25T20:40:50.851Z,17.90
2019-01-25T20:43:22.852Z,14.95
2019-01-25T20:45:55.972Z,17.27
2019-01-25T20:48:28.137Z,16.35
2019-01-25T20:51:00.972Z,14.75
2019-01-25T20:53:33.511Z,15.38
2019-01-25T20:56:06.291Z,15.00
2019-01-25T20:58:38.974Z,16.15
2019-01-25T21:01:11.773Z,15.83
2019-01-25T21:03:44.551Z,14.50
2019-01-25T21:06:17.911Z,13.80
2019-01-25T21:08:49.911Z,14.50
2019-01-25T21:11:22.052Z,14.00
2019-01-25T21:13:55.351Z,14.23
2019-01-25T21:16:27.629Z,14.53
2019-01-25T21:19:00.134Z,13.80
2019-01-25T21:21:32.918Z,13.78
2019-01-25T21:24:06.192Z,12.00
2019-01-25T21:26:39.011Z,13.35
2019-01-25T21:29:11.471Z,12.43
2019-01-25T21:31:43.592Z,13.05
2019-01-25T21:34:16.991Z,12.60
2019-01-25T21:36:49.271Z,12.18
2019-01-25T21:39:21.871Z,9.35
2019-01-25T21:41:54.475Z,25.60
2019-01-25T21:44:27.092Z,14.38
2019-01-25T21:46:59.809Z,10.65
2019-01-25T21:49:32.592Z,11.60
2019-01-25T21:52:05.757Z,10.90
2019-01-25T21:54:38.911Z,10.58
2019-01-25T21:57:12.499Z,10.90
2019-01-25T21:59:44.957Z,11.73
2019-01-25T22:02:17.236Z,10.35
2019-01-25T22:04:49.464Z,11.40
2019-01-25T22:07:21.895Z,10.68
2019-01-25T22:09:54.836Z,10.82
2019-01-25T22:12:28.055Z,10.58
2019-01-25T22:15:01.051Z,10.75
2019-01-25T22:17:35.050Z,12.82
2019-01-25T22:20:09.990Z,9.98
2019-01-25T22:22:42.132Z,10.70
2019-01-25T22:25:14.950Z,9.83
2019-01-25T22:27:47.710Z,9.25
2019-01-25T22:30:22.151Z,10.40
2019-01-25T22:32:55.010Z,10.75
2019-01-25T22:35:27.989Z,11.28
2019-01-25T22:38:01.208Z,10.53
2019-01-25T22:40:34.889Z,13.45
2019-01-25T22:43:08.305Z,11.18
2019-01-25T22:45:42.104Z,11.73
2019-01-25T22:48:15.786Z,11.70
2019-01-25T22:50:48.908Z,23.02
2019-01-25T22:53:20.946Z,11.20
2019-01-25T22:55:53.246Z,11.45
2019-01-25T22:58:26.147Z,10.75
2019-01-25T23:01:15.146Z,10.88
2019-01-25T23:04:21.208Z,13.62
2019-01-25T23:07:28.628Z,11.10
2019-01-25T23:10:03.766Z,10.25
2019-01-25T23:12:36.771Z,10.60
2019-01-25T23:15:11.085Z,9.63
2019-01-25T23:17:44.328Z,10.48
2019-01-25T23:20:16.889Z,10.55
2019-01-25T23:22:49.044Z,10.18
2019-01-25T23:25:21.896Z,9.78
2019-01-25T23:27:54.856Z,9.93
2019-01-25T23:30:27.714Z,9.10
2019-01-25T23:33:00.353Z,9.78
2019-01-25T23:35:32.994Z,8.53
2019-01-25T23:38:05.441Z,9.63
2019-01-25T23:40:37.093Z,8.70
2019-01-25T23:43:09.774Z,8.10
2019-01-25T23:45:43.113Z,8.18
2019-01-25T23:48:15.518Z,7.45
2019-01-25T23:50:47.654Z,7.45
2019-01-25T23:53:20.054Z,7.58
2019-01-25T23:55:53.454Z,7.22
2019-01-25T23:58:26.174Z,7.47
